createdAt,value
2023-11-06T00:12:09.986Z,56.40
2023-11-06T00:27:11.764Z,56.83
2023-11-06T00:42:14.505Z,56.92
2023-11-06T00:57:17.181Z,56.90
2023-11-06T01:12:18.887Z,56.83
2023-11-06T01:27:21.404Z,56.78
2023-11-06T01:42:24.038Z,56.76
2023-11-06T01:57:27.772Z,56.74
2023-11-06T02:12:29.488Z,56.90
2023-11-06T02:27:31.980Z,56.95
2023-11-06T02:42:37.736Z,57.06
2023-11-06T02:57:40.382Z,56.81
2023-11-06T03:12:43.531Z,56.70
2023-11-06T03:27:46.086Z,56.67
2023-11-06T03:42:47.761Z,56.72
2023-11-06T03:57:49.468Z,56.80
2023-11-06T04:12:51.979Z,56.73
2023-11-06T04:27:54.570Z,56.35
2023-11-06T04:42:57.245Z,56.35
2023-11-06T04:57:59.869Z,56.36
2023-11-06T05:13:02.367Z,56.88
2023-11-06T05:28:04.884Z,56.74
2023-11-06T05:43:07.424Z,58.18
2023-11-06T05:58:10.056Z,57.73
2023-11-06T06:13:12.665Z,58.08
2023-11-06T06:28:15.266Z,57.80
2023-11-06T06:43:20.591Z,56.59
2023-11-06T06:58:23.163Z,57.71
2023-11-06T07:13:25.994Z,57.47
2023-11-06T07:28:29.514Z,56.90
2023-11-06T07:43:31.425Z,56.56
2023-11-06T07:58:34.697Z,56.48
2023-11-06T08:13:37.305Z,56.67
2023-11-06T08:28:39.863Z,56.90
2023-11-06T08:43:42.551Z,56.34
2023-11-06T08:58:45.142Z,56.20
2023-11-06T09:13:46.833Z,56.48
2023-11-06T09:28:49.652Z,56.39
2023-11-06T09:43:52.226Z,56.35
2023-11-06T09:58:55.252Z,56.20
2023-11-06T10:13:58.667Z,56.35
2023-11-06T10:29:14.465Z,55.87
2023-11-06T10:44:17.855Z,56.43
2023-11-06T10:59:21.223Z,55.72
2023-11-06T11:14:23.163Z,56.55
2023-11-06T11:29:54.093Z,56.04
2023-11-06T11:45:06.925Z,56.42
2023-11-06T12:00:24.002Z,55.92
2023-11-06T12:15:32.731Z,56.35
2023-11-06T12:30:36.820Z,56.37
2023-11-06T12:45:40.640Z,57.54
2023-11-06T13:00:43.334Z,57.05
2023-11-06T13:15:45.260Z,58.12
2023-11-06T13:30:47.123Z,56.96
2023-11-06T13:45:49.720Z,56.71
2023-11-06T14:00:52.230Z,56.98
2023-11-06T14:15:55.210Z,56.60
2023-11-06T14:30:58.096Z,56.72
2023-11-06T14:46:00.790Z,56.84
2023-11-06T15:01:03.282Z,56.69
2023-11-06T15:16:05.227Z,56.86
2023-11-06T15:31:07.879Z,56.57
2023-11-06T15:46:14.396Z,57.25
2023-11-06T16:01:22.438Z,57.11
2023-11-06T16:16:26.820Z,56.80
2023-11-06T16:31:43.458Z,57.48
2023-11-06T16:46:45.992Z,57.09
2023-11-06T17:01:48.513Z,58.79
2023-11-06T17:16:51.269Z,58.54
2023-11-06T17:31:54.765Z,59.04
2023-11-06T17:46:56.498Z,58.73
2023-11-06T18:01:59.468Z,58.63
2023-11-06T18:17:02.299Z,58.86
2023-11-06T18:32:05.257Z,57.99
2023-11-06T18:47:07.418Z,58.47
2023-11-06T19:02:12.323Z,58.63
2023-11-06T19:17:15.373Z,58.79
2023-11-06T19:32:19.099Z,58.49
2023-11-06T19:47:22.609Z,58.17
2023-11-06T20:02:26.798Z,58.40
2023-11-06T20:17:29.519Z,58.82
2023-11-06T20:32:33.106Z,58.88
2023-11-06T20:47:40.819Z,58.84
2023-11-06T21:02:42.910Z,58.49
2023-11-06T21:17:45.066Z,58.68
2023-11-06T21:32:48.152Z,58.63
2023-11-06T21:47:50.077Z,58.49
2023-11-06T22:02:51.940Z,58.34
2023-11-06T22:17:54.649Z,58.91
2023-11-06T22:32:57.400Z,58.68
2023-11-06T22:48:00.168Z,58.69
2023-11-06T23:03:02.881Z,58.59
2023-11-06T23:18:06.435Z,58.83
2023-11-06T23:33:09.602Z,58.45
2023-11-06T23:48:12.319Z,58.25
